Map

Track Data

SID SEASON NUMBER BASIN SUBBASIN NAME ISO_TIME NATURE LAT LON WMO_WIND WMO_PRES WMO_AGENCY TRACK_TYPE DIST2LAND LANDFALL IFLAG USA_AGENCY USA_ATCF_ID USA_LAT USA_LON USA_RECORD USA_STATUS USA_WIND USA_PRES USA_SSHS USA_R34_NE USA_R34_SE USA_R34_SW USA_R34_NW USA_R50_NE USA_R50_SE USA_R50_SW USA_R50_NW USA_R64_NE USA_R64_SE USA_R64_SW USA_R64_NW USA_POCI USA_ROCI USA_RMW USA_EYE TOKYO_LAT TOKYO_LON TOKYO_GRADE TOKYO_WIND TOKYO_PRES TOKYO_R50_DIR TOKYO_R50_LONG TOKYO_R50_SHORT TOKYO_R30_DIR TOKYO_R30_LONG TOKYO_R30_SHORT TOKYO_LAND CMA_LAT CMA_LON CMA_CAT CMA_WIND CMA_PRES HKO_LAT HKO_LON HKO_CAT HKO_WIND HKO_PRES NEWDELHI_LAT NEWDELHI_LON NEWDELHI_GRADE NEWDELHI_WIND NEWDELHI_PRES NEWDELHI_CI NEWDELHI_DP NEWDELHI_POCI REUNION_LAT REUNION_LON REUNION_TYPE REUNION_WIND REUNION_PRES REUNION_TNUM REUNION_CI REUNION_RMW REUNION_R34_NE REUNION_R34_SE REUNION_R34_SW REUNION_R34_NW REUNION_R50_NE REUNION_R50_SE REUNION_R50_SW REUNION_R50_NW REUNION_R64_NE REUNION_R64_SE REUNION_R64_SW REUNION_R64_NW BOM_LAT BOM_LON BOM_TYPE BOM_WIND BOM_PRES BOM_TNUM BOM_CI BOM_RMW BOM_R34_NE BOM_R34_SE BOM_R34_SW BOM_R34_NW BOM_R50_NE BOM_R50_SE BOM_R50_SW BOM_R50_NW BOM_R64_NE BOM_R64_SE BOM_R64_SW BOM_R64_NW BOM_ROCI BOM_POCI BOM_EYE BOM_POS_METHOD BOM_PRES_METHOD NADI_LAT NADI_LON NADI_CAT NADI_WIND NADI_PRES WELLINGTON_LAT WELLINGTON_LON WELLINGTON_WIND WELLINGTON_PRES DS824_LAT DS824_LON DS824_STAGE DS824_WIND DS824_PRES TD9636_LAT TD9636_LON TD9636_STAGE TD9636_WIND TD9636_PRES TD9635_LAT TD9635_LON TD9635_WIND TD9635_PRES TD9635_ROCI NEUMANN_LAT NEUMANN_LON NEUMANN_CLASS NEUMANN_WIND NEUMANN_PRES MLC_LAT MLC_LON MLC_CLASS MLC_WIND MLC_PRES USA_GUST BOM_GUST BOM_GUST_PER REUNION_GUST REUNION_GUST_PER USA_SEAHGT USA_SEARAD_NE USA_SEARAD_SE USA_SEARAD_SW USA_SEARAD_NW STORM_SPEED STORM_DIR
1951045S16123 1951 13 SI WA NOT_NAMED 1951-02-14 01:00:00 NR -16.0000 122.500 999 bom main 70 70 ______O_______ -1 -16.0000 122.500 999 4 284
1951045S16123 1951 13 SI WA NOT_NAMED 1951-02-14 03:00:00 NR -15.9718 122.381 main 77 77 ______P_______ -1 -15.9718 122.381 4 283
1951045S16123 1951 13 SI WA NOT_NAMED 1951-02-14 06:00:00 NR -15.9343 122.196 main 100 100 ______P_______ -1 -15.9343 122.196 4 280
1951045S16123 1951 13 SI WA NOT_NAMED 1951-02-14 09:00:00 NR -15.9094 121.996 main 115 115 ______P_______ -1 -15.9094 121.996 4 274
1951045S16123 1951 13 SI WA NOT_NAMED 1951-02-14 12:00:00 NR -15.9047 121.772 main 131 131 ______P_______ -1 -15.9047 121.772 5 268
1951045S16123 1951 13 SI WA NOT_NAMED 1951-02-14 15:00:00 NR -15.9277 121.515 main 154 154 ______P_______ -1 -15.9277 121.515 5 261
1951045S16123 1951 13 SI WA NOT_NAMED 1951-02-14 18:00:00 NR -15.9858 121.216 main 170 170 ______P_______ -1 -15.9858 121.216 6 256
1951045S16123 1951 13 SI WA NOT_NAMED 1951-02-14 21:00:00 NR -16.0866 120.865 main 186 195 ______P_______ -1 -16.0866 120.865 10 254
1951045S16123 1951 13 SI WA NOT_NAMED 1951-02-14 23:00:00 NR -16.2049 120.398 main 226 235 ______P___O___ -1 -16.1811 120.598 -16.3000 119.600 7 18 255
1951045S16123 1951 13 SI WA NOT_NAMED 1951-02-15 00:00:00 TS -16.3140 119.983 main 259 269 O_____P__OP___ jtwc_sh SH191951 -16.4000 119.400 -1 -16.2374 120.453 -16.4000 119.400 TC -16.3883 119.416 7 21 253
1951045S16123 1951 13 SI WA NOT_NAMED 1951-02-15 01:00:00 TS -16.4131 119.704 996 bom main 284 284 P_____O__PP___ SH191951 -16.4792 119.218 -1 -16.3000 120.300 996 -16.4792 119.218 TC -16.4766 119.232 7 15 247
1951045S16123 1951 13 SI WA NOT_NAMED 1951-02-15 03:00:00 TS -16.5965 119.281 main 317 327 P_____P__PP___ SH191951 -16.6403 118.853 -1 -16.4444 119.971 -16.6403 118.853 TC -16.6540 118.864 7 13 244
1951045S16123 1951 13 SI WA NOT_NAMED 1951-02-15 06:00:00 TS -16.8784 118.697 main 360 338 O_____P__OP___ jtwc_sh SH191951 -16.9000 118.300 -1 -16.7022 119.423 -16.9000 118.300 TC -16.9246 118.312 7 13 243
1951045S16123 1951 13 SI WA NOT_NAMED 1951-02-15 09:00:00 TS -17.1746 118.120 main 341 331 P_____P__PP___ SH191951 -17.1924 117.742 -1 -16.9983 118.824 -17.1924 117.742 TC -17.2051 117.763 7 13 241
1951045S16123 1951 13 SI WA NOT_NAMED 1951-02-15 11:00:00 TS -17.3792 117.734 main 336 328 P_____P__PO___ SH191951 -17.3973 117.378 -1 -17.2105 118.401 -17.3973 117.378 TC -17.4000 117.400 7 13 241
1951045S16123 1951 13 SI WA NOT_NAMED 1951-02-15 12:00:00 TS -17.4822 117.542 main 330 312 O_____P__OP___ jtwc_sh SH191951 -17.5000 117.200 -1 -17.3197 118.185 -17.5000 117.200 TC -17.5002 117.219 7 13 241
1951045S16123 1951 13 SI WA NOT_NAMED 1951-02-15 15:00:00 TS -17.7883 116.974 main 312 280 P_____P__PP___ SH191951 -17.7999 116.685 -1 -17.6538 117.520 -17.7999 116.685 TC -17.8082 116.685 7 12 240
1951045S16123 1951 13 SI WA NOT_NAMED 1951-02-15 18:00:00 TS -18.0903 116.420 main 281 259 O_____P__OP___ jtwc_sh SH191951 -18.1000 116.200 -1 -17.9880 116.844 -18.1000 116.200 TC -18.1172 116.172 7 12 240
1951045S16123 1951 13 SI WA NOT_NAMED 1951-02-15 21:00:00 TS -18.3855 115.881 main 259 251 P_____P__PP___ SH191951 -18.4074 115.727 -1 -18.3102 116.170 -18.4074 115.727 TC -18.4145 115.694 7 12 240
1951045S16123 1951 13 SI WA NOT_NAMED 1951-02-15 23:00:00 TS -18.5713 115.539 main 256 252 P_____P__PO___ SH191951 -18.6057 115.436 -1 -18.5122 115.729 -18.6057 115.436 TC -18.6000 115.400 7 11 240
1951045S16123 1951 13 SI WA NOT_NAMED 1951-02-16 00:00:00 TS -18.6598 115.376 main 252 258 O_____P__OP___ jtwc_sh SH191951 -18.7000 115.300 -1 -18.6081 115.513 -18.7000 115.300 TC -18.6909 115.267 7 11 240
1951045S16123 1951 13 SI WA NOT_NAMED 1951-02-16 01:00:00 TS -18.7463 115.218 990 bom main 264 255 P_____O__PP___ SH191951 -18.7942 115.172 -1 -18.7000 115.300 990 4 -18.7942 115.172 TC -18.7796 115.140 7 10 241
1951045S16123 1951 13 SI WA NOT_NAMED 1951-02-16 03:00:00 TS -18.9002 114.924 main 261 258 P_____P__PP___ SH191951 -18.9723 114.935 -1 -18.8250 114.922 -18.9723 114.935 TC -18.9498 114.902 7 9 242
1951045S16123 1951 13 SI WA NOT_NAMED 1951-02-16 06:00:00 TS -19.1022 114.500 main 267 263 O_____P__OP___ jtwc_sh SH191951 -19.2000 114.600 -1 -18.9888 114.369 -19.2000 114.600 TC -19.1836 114.567 7 9 245
1951045S16123 1951 13 SI WA NOT_NAMED 1951-02-16 09:00:00 TS -19.2691 114.079 main 275 275 P_____P__PP___ SH191951 -19.3724 114.257 -1 -19.1332 113.830 -19.3724 114.257 TC -19.3858 114.234 7 9 249
1951045S16123 1951 13 SI WA NOT_NAMED 1951-02-16 11:00:00 TS -19.3638 113.795 main 280 280 P_____P__PO___ SH191951 -19.4609 114.022 -1 -19.2239 113.476 -19.4609 114.022 TC -19.5000 114.000 7 9 251
1951045S16123 1951 13 SI WA NOT_NAMED 1951-02-16 12:00:00 TS -19.4076 113.650 main 281 273 O_____P__OP___ jtwc_sh SH191951 -19.5000 113.900 -1 -19.2687 113.300 -19.5000 113.900 TC -19.5499 113.876 7 9 253
1951045S16123 1951 13 SI WA NOT_NAMED 1951-02-16 15:00:00 TS -19.5306 113.211 main 280 273 P_____P__PP___ SH191951 -19.6073 113.522 -1 -19.4054 112.776 -19.6073 113.522 TC -19.6722 113.489 7 9 254
1951045S16123 1951 13 SI WA NOT_NAMED 1951-02-16 18:00:00 TS -19.6468 112.750 main 290 280 O_____P__OP___ jtwc_sh SH191951 -19.7000 113.100 -1 -19.5535 112.251 -19.7000 113.100 TC -19.7656 113.075 7 9 255
1951045S16123 1951 13 SI WA NOT_NAMED 1951-02-16 21:00:00 TS -19.7721 112.260 main 293 300 P_____P__PP___ SH191951 -19.7999 112.622 -1 -19.7231 111.722 -19.7999 112.622 TC -19.8459 112.625 7 10 255
1951045S16123 1951 13 SI WA NOT_NAMED 1951-02-16 23:00:00 TS -19.8626 111.918 main 312 312 P_____P__PO___ SH191951 -19.8666 112.278 -1 -19.8531 111.364 -19.8666 112.278 TC -19.9000 112.300 7 10 254
1951045S16123 1951 13 SI WA NOT_NAMED 1951-02-17 00:00:00 TS -19.9106 111.741 main 327 327 O_____P__OP___ jtwc_sh SH191951 -19.9000 112.100 -1 -19.9242 111.183 -19.9000 112.100 TC -19.9285 112.123 7 10 254
1951045S16123 1951 13 SI WA NOT_NAMED 1951-02-17 01:00:00 TS -19.9602 111.564 990 bom main 327 327 P_____O__PP___ SH191951 -19.9332 111.925 -1 -20.0000 111.000 990 -19.9332 111.925 TC -19.9565 111.940 7 11 253
1951045S16123 1951 13 SI WA NOT_NAMED 1951-02-17 03:00:00 TS -20.0654 111.199 main 353 353 P_____P__PP___ SH191951 -19.9998 111.565 -1 -20.1688 110.612 990 -19.9998 111.565 TC -20.0121 111.559 7 11 252
1951045S16123 1951 13 SI WA NOT_NAMED 1951-02-17 06:00:00 TS -20.2351 110.637 main 400 395 O_____P__OP___ jtwc_sh SH191951 -20.1000 111.000 -1 -20.4441 110.028 991 -20.1000 111.000 TC -20.1020 110.966 7 11 252
1951045S16123 1951 13 SI WA NOT_NAMED 1951-02-17 09:00:00 TS -20.4132 110.062 main 437 446 P_____P__PP___ SH191951 -20.1850 110.392 -1 -20.7406 109.455 992 -20.1850 110.392 TC -20.2108 110.376 7 11 251
1951045S16123 1951 13 SI WA NOT_NAMED 1951-02-17 11:00:00 TS -20.5457 109.687 main 466 460 P_____P__PO___ SH191951 -20.2553 109.991 -1 -20.9474 109.089 992 -20.2553 109.991 TC -20.3000 110.000 7 11 249
1951045S16123 1951 13 SI WA NOT_NAMED 1951-02-17 11:30:00 TS -20.5806 109.595 993 bom main 470 470 P_____O__PP___ SH191951 -20.2766 109.894 -1 -21.0000 109.000 993 -20.2766 109.894 TC -20.3207 109.908 7 11 248
1951045S16123 1951 13 SI WA NOT_NAMED 1951-02-17 12:00:00 TS -20.6147 109.505 main 479 479 O_____P__OP___ jtwc_sh SH191951 -20.3000 109.800 -1 -21.0436 108.913 -20.3000 109.800 TC -20.3421 109.816 7 11 246
1951045S16123 1951 13 SI WA NOT_NAMED 1951-02-17 15:00:00 TS -20.8398 108.987 main 515 511 P_____P__PP___ SH191951 -20.4773 109.270 -1 -21.3033 108.413 -20.4773 109.270 TC -20.4860 109.281 7 11 243
1951045S16123 1951 13 SI WA NOT_NAMED 1951-02-17 18:00:00 TS -21.0988 108.506 main 552 552 O_____P__OP___ jtwc_sh SH191951 -20.7000 108.800 -1 -21.5834 107.942 -20.7000 108.800 TC -20.6685 108.785 7 10 238
1951045S16123 1951 13 SI WA NOT_NAMED 1951-02-17 21:00:00 TS -21.3811 108.057 main 582 589 P_____P__PP___ SH191951 -20.9199 108.370 -1 -21.9165 107.491 -20.9199 108.370 TC -20.9048 108.349 7 10 233
1951045S16123 1951 13 SI WA NOT_NAMED 1951-02-17 23:00:00 TS -21.5994 107.780 main 607 607 P_____P__PO___ SH191951 -21.0969 108.117 -1 -22.1843 107.195 -21.0969 108.117 TC -21.1000 108.100 7 10 228
1951045S16123 1951 13 SI WA NOT_NAMED 1951-02-18 00:00:00 TS -21.7199 107.644 main 625 623 O_____P__OP___ jtwc_sh SH191951 -21.2000 108.000 -1 -22.3356 107.048 -21.2000 108.000 TC -21.2064 107.969 7 9 229
1951045S16123 1951 13 SI WA NOT_NAMED 1951-02-18 01:00:00 TS -21.7980 107.532 998 bom main 634 632 P_____O__PP___ SH191951 -21.3109 107.878 -1 -22.5000 106.900 998 -21.3109 107.878 TC -21.3211 107.844 7 7 227
1951045S16123 1951 13 SI WA NOT_NAMED 1951-02-18 03:00:00 TS -21.9737 107.349 main 651 650 P_____P__PP___ SH191951 -21.5625 107.655 -1 -22.8683 106.603 998 -21.5625 107.655 TC -21.5732 107.620 7 7 216
1951045S16123 1951 13 SI WA NOT_NAMED 1951-02-18 06:00:00 TS -22.2981 107.143 main 668 658 O_____P__OP___ jtwc_sh SH191951 -22.0000 107.400 -1 -23.4863 106.152 998 -22.0000 107.400 TC -21.9996 107.360 7 5 201
1951045S16123 1951 13 SI WA NOT_NAMED 1951-02-18 07:00:00 TS -22.2731 107.218 998 bom main 658 657 P_____O__PP___ SH191951 -22.1552 107.331 -1 -23.7000 106.000 998 -22.1552 107.331 TC -22.1522 107.298 7 4 157
1951045S16123 1951 13 SI WA NOT_NAMED 1951-02-18 09:00:00 TS -22.4799 107.227 main 657 654 P________PP___ SH191951 -22.4849 107.233 -1 -22.4849 107.233 TC -22.4699 107.217 7 8 0
1951045S16123 1951 13 SI WA NOT_NAMED 1951-02-18 11:00:00 TS -22.8187 107.196 main 654 649 P________PO___ SH191951 -22.8280 107.194 -1 -22.8280 107.194 TC -22.8000 107.200 7 10 183
1951045S16123 1951 13 SI WA NOT_NAMED 1951-02-18 12:00:00 TS -22.9874 107.207 main 649 627 O________OP___ jtwc_sh SH191951 -23.0000 107.200 -1 -23.0000 107.200 TC -22.9684 107.218 7 10 169
1951045S16123 1951 13 SI WA NOT_NAMED 1951-02-18 15:00:00 TS -23.4943 107.338 main 627 589 P________PP___ SH191951 -23.5051 107.310 -1 -23.5051 107.310 TC -23.4835 107.367 7 11 162
1951045S16123 1951 13 SI WA NOT_NAMED 1951-02-18 18:00:00 TS -24.0061 107.576 main 589 546 O________OP___ jtwc_sh SH191951 -24.0000 107.500 -1 -24.0000 107.500 TC -24.0101 107.627 7 12 152
1951045S16123 1951 13 SI WA NOT_NAMED 1951-02-18 21:00:00 NR -24.5432 107.959 main 546 527 __________P___ SH191951 -1 TC -24.5432 107.959 7 13 148
1951045S16123 1951 13 SI WA NOT_NAMED 1951-02-18 23:00:00 NR -24.9000 108.200 main 528 __________O___ SH191951 -1 TC -24.9000 108.200 7 13 149

About IBTrACS Database

This database is a web-friendly format of International Best Track Archive for Climate Stewardship (IBTrACS), a global best track data archive curated by NOAA dating back to 1842.

Updated: 2021-11-26